createdAt,value
2022-09-02T00:01:25.337Z,39.58
2022-09-02T00:03:58.664Z,39.65
2022-09-02T00:06:28.149Z,39.58
2022-09-02T00:08:57.021Z,39.22
2022-09-02T00:11:29.261Z,39.71
2022-09-02T00:13:58.779Z,39.33
2022-09-02T00:16:28.712Z,39.74
2022-09-02T00:19:00.397Z,39.56
2022-09-02T00:21:28.791Z,39.36
2022-09-02T00:23:57.260Z,39.51
2022-09-02T00:26:26.216Z,39.58
2022-09-02T00:28:56.293Z,39.67
2022-09-02T00:31:25.948Z,39.80
2022-09-02T00:33:54.673Z,39.93
2022-09-02T00:36:24.688Z,39.84
2022-09-02T00:38:54.194Z,39.71
2022-09-02T00:41:26.197Z,40.09
2022-09-02T00:43:57.751Z,40.22
2022-09-02T00:46:28.311Z,39.92
2022-09-02T00:49:11.617Z,39.93
2022-09-02T00:51:45.033Z,40.32
2022-09-02T00:54:15.358Z,40.28
2022-09-02T00:56:46.199Z,40.29
2022-09-02T00:59:22.154Z,40.69
2022-09-02T01:01:50.885Z,40.82
2022-09-02T01:04:19.296Z,40.60
2022-09-02T01:06:50.222Z,40.72
2022-09-02T01:09:19.461Z,40.99
2022-09-02T01:11:53.753Z,40.91
2022-09-02T01:14:28.562Z,40.98
2022-09-02T01:17:01.253Z,41.05
2022-09-02T01:19:35.079Z,41.04
2022-09-02T01:22:16.855Z,41.28
2022-09-02T01:24:45.644Z,41.16
2022-09-02T01:27:18.170Z,41.30
2022-09-02T01:29:52.330Z,41.32
2022-09-02T01:32:21.555Z,41.26
2022-09-02T01:34:50.182Z,41.51
2022-09-02T01:37:20.342Z,41.27
2022-09-02T01:39:49.771Z,41.33
2022-09-02T01:42:18.272Z,41.89
2022-09-02T01:44:46.836Z,41.76
2022-09-02T01:47:17.109Z,42.09
2022-09-02T01:49:46.716Z,42.10
2022-09-02T01:52:15.857Z,42.16
2022-09-02T01:54:46.731Z,42.30
2022-09-02T01:57:15.271Z,42.27
2022-09-02T01:59:44.712Z,42.42
2022-09-02T02:02:13.226Z,42.40
2022-09-02T02:04:42.918Z,42.24
2022-09-02T02:07:11.274Z,42.35
2022-09-02T02:09:41.110Z,42.40
2022-09-02T02:12:12.034Z,42.63
2022-09-02T02:14:43.414Z,42.87
2022-09-02T02:17:12.217Z,42.63
2022-09-02T02:19:44.566Z,42.76
2022-09-02T02:22:14.210Z,42.96
2022-09-02T02:24:42.940Z,43.04
2022-09-02T02:27:13.190Z,43.22
2022-09-02T02:29:42.007Z,43.39
2022-09-02T02:32:10.290Z,43.48
2022-09-02T02:34:40.561Z,43.29
2022-09-02T02:37:08.793Z,43.66
2022-09-02T02:39:37.573Z,43.66
2022-09-02T02:42:06.446Z,43.63
2022-09-02T02:44:39.593Z,44.01
2022-09-02T02:47:09.715Z,43.77
2022-09-02T02:49:39.336Z,43.99
2022-09-02T02:52:08.353Z,43.99
2022-09-02T02:54:37.218Z,44.06
2022-09-02T02:57:07.237Z,44.40
2022-09-02T02:59:38.331Z,44.69
2022-09-02T03:02:08.290Z,44.63
2022-09-02T03:04:37.310Z,44.84
2022-09-02T03:07:07.506Z,44.99
2022-09-02T03:09:36.113Z,44.98
2022-09-02T03:12:05.583Z,45.33
2022-09-02T03:14:34.080Z,45.45
2022-09-02T03:17:06.887Z,45.59
2022-09-02T03:19:37.824Z,45.60
2022-09-02T03:22:11.900Z,45.61
2022-09-02T03:24:40.797Z,45.62
2022-09-02T03:27:09.342Z,45.91
2022-09-02T03:29:41.264Z,45.96
2022-09-02T03:32:12.643Z,46.16
2022-09-02T03:34:44.761Z,46.49
2022-09-02T03:37:13.018Z,46.21
2022-09-02T03:39:41.401Z,46.25
2022-09-02T03:42:19.462Z,46.48
2022-09-02T03:44:51.096Z,46.25
2022-09-02T03:47:21.915Z,46.38
2022-09-02T03:49:53.073Z,46.28
2022-09-02T03:52:24.530Z,46.32
2022-09-02T03:54:53.304Z,46.42
2022-09-02T03:57:26.305Z,46.59
2022-09-02T04:00:03.795Z,46.54
2022-09-02T04:02:40.027Z,46.48
2022-09-02T04:05:15.924Z,46.68
2022-09-02T04:08:00.412Z,46.80
2022-09-02T04:10:31.066Z,46.75
2022-09-02T04:13:01.643Z,47.00
2022-09-02T04:15:30.347Z,46.70
2022-09-02T04:18:02.144Z,47.17
2022-09-02T04:20:31.683Z,47.11
2022-09-02T04:23:03.599Z,47.25
2022-09-02T04:25:32.564Z,47.37
2022-09-02T04:28:02.323Z,47.23
2022-09-02T04:30:36.884Z,47.45
2022-09-02T04:33:11.041Z,47.48
2022-09-02T04:35:42.190Z,47.19
2022-09-02T04:38:13.437Z,47.48
2022-09-02T04:40:43.752Z,47.60
2022-09-02T04:43:14.549Z,47.78
2022-09-02T04:45:45.219Z,47.50
2022-09-02T04:48:16.118Z,47.89
2022-09-02T04:50:44.871Z,48.07
2022-09-02T04:53:13.750Z,48.01
2022-09-02T04:58:11.522Z,48.24
2022-09-02T05:00:44.649Z,47.96
2022-09-02T05:03:14.962Z,47.97
2022-09-02T05:05:43.452Z,48.24
2022-09-02T05:08:13.356Z,48.23
2022-09-02T05:10:42.513Z,48.30
2022-09-02T05:13:11.127Z,48.24
2022-09-02T05:15:41.411Z,48.16
2022-09-02T05:18:10.156Z,48.14
2022-09-02T05:20:43.879Z,48.04
2022-09-02T05:23:14.094Z,48.25
2022-09-02T05:25:43.228Z,48.23
2022-09-02T05:28:12.973Z,48.42
2022-09-02T05:30:44.543Z,48.20
2022-09-02T05:33:13.841Z,48.47
2022-09-02T05:35:47.912Z,48.39
2022-09-02T05:38:18.527Z,48.31
2022-09-02T05:40:47.268Z,48.40
2022-09-02T05:43:16.082Z,48.47
2022-09-02T05:45:45.595Z,48.34
2022-09-02T05:48:27.858Z,48.44
2022-09-02T05:50:58.491Z,48.47
2022-09-02T05:53:28.997Z,48.44
2022-09-02T05:55:57.585Z,48.57
2022-09-02T05:58:26.986Z,48.41
2022-09-02T06:00:55.450Z,48.60
2022-09-02T06:03:25.669Z,48.67
2022-09-02T06:06:06.018Z,48.81
2022-09-02T06:08:36.223Z,48.84
2022-09-02T06:11:14.033Z,48.63
2022-09-02T06:13:44.096Z,48.69
2022-09-02T06:16:17.957Z,48.80
2022-09-02T06:18:48.443Z,48.72
2022-09-02T06:21:22.138Z,48.66
2022-09-02T06:23:50.619Z,48.50
2022-09-02T06:26:19.614Z,48.69
2022-09-02T06:28:48.185Z,48.54
2022-09-02T06:31:21.436Z,48.56
2022-09-02T06:33:52.603Z,48.45
2022-09-02T06:36:28.159Z,48.52
2022-09-02T06:39:00.927Z,48.42
2022-09-02T06:41:32.152Z,48.47
2022-09-02T06:44:04.266Z,48.17
2022-09-02T06:46:42.670Z,48.19
2022-09-02T06:49:11.851Z,47.91
2022-09-02T06:51:43.961Z,48.23
2022-09-02T06:54:14.987Z,47.90
2022-09-02T06:56:49.236Z,47.63
2022-09-02T06:59:18.392Z,47.79
2022-09-02T07:01:47.812Z,47.67
2022-09-02T07:04:36.875Z,47.50
2022-09-02T07:07:09.010Z,47.47
2022-09-02T07:09:42.137Z,47.36
2022-09-02T07:12:12.042Z,47.71
2022-09-02T07:14:42.672Z,47.71
2022-09-02T07:17:12.994Z,47.28
2022-09-02T07:19:41.307Z,47.76
2022-09-02T07:22:18.823Z,47.24
2022-09-02T07:24:49.775Z,47.19
2022-09-02T07:27:20.405Z,46.93
2022-09-02T07:29:59.418Z,46.95
2022-09-02T07:32:30.954Z,46.71
2022-09-02T07:35:02.101Z,46.57
2022-09-02T07:37:32.068Z,46.71
2022-09-02T07:40:03.235Z,46.71
2022-09-02T07:42:31.575Z,46.01
2022-09-02T07:45:00.019Z,45.95
2022-09-02T07:47:29.139Z,45.64
2022-09-02T07:52:47.467Z,45.34
2022-09-02T07:55:16.751Z,45.25
2022-09-02T07:57:57.842Z,44.86
2022-09-02T08:00:45.782Z,44.98
2022-09-02T08:04:09.979Z,44.80
2022-09-02T08:06:45.723Z,44.91
2022-09-02T08:13:38.352Z,44.74
2022-09-02T08:16:39.697Z,44.57
2022-09-02T08:19:31.989Z,44.18
2022-09-02T08:22:31.533Z,44.37
2022-09-02T08:25:12.741Z,44.43
2022-09-02T08:27:47.510Z,44.41
2022-09-02T08:30:21.049Z,44.23
2022-09-02T08:32:58.865Z,44.22
2022-09-02T08:35:28.058Z,44.08
2022-09-02T08:37:59.806Z,44.14
2022-09-02T08:40:41.172Z,43.97
2022-09-02T08:43:23.374Z,44.22
2022-09-02T08:45:56.396Z,43.94
2022-09-02T08:48:46.465Z,43.85
2022-09-02T08:51:20.754Z,43.72
2022-09-02T08:54:02.521Z,43.75
2022-09-02T08:56:35.584Z,43.77
2022-09-02T08:59:16.086Z,43.41
2022-09-02T09:01:53.644Z,43.66
2022-09-02T09:05:02.318Z,43.57
2022-09-02T09:22:13.392Z,43.53
2022-09-02T09:24:48.810Z,43.02
2022-09-02T09:27:19.741Z,42.79
2022-09-02T09:29:56.406Z,42.71
2022-09-02T09:32:49.613Z,42.14
2022-09-02T09:35:19.083Z,42.11
2022-09-02T09:37:50.808Z,41.91
2022-09-02T09:40:28.173Z,41.58
2022-09-02T09:45:43.547Z,41.67
2022-09-02T09:48:27.868Z,41.48
2022-09-02T09:51:15.099Z,41.12
2022-09-02T09:53:45.690Z,40.76
2022-09-02T09:56:32.639Z,40.87
2022-09-02T09:59:10.104Z,40.72
2022-09-02T10:01:39.150Z,40.84
2022-09-02T10:04:39.316Z,40.81
2022-09-02T10:07:04.998Z,40.77
2022-09-02T10:09:38.089Z,40.60
2022-09-02T10:12:08.725Z,40.38
2022-09-02T10:14:40.922Z,40.62
2022-09-02T10:17:36.377Z,40.76
2022-09-02T10:20:14.257Z,40.68
2022-09-02T10:23:13.561Z,40.73
2022-09-02T10:26:05.050Z,40.27
2022-09-02T10:28:48.314Z,40.64
2022-09-02T10:31:30.223Z,40.38
2022-09-02T10:34:08.903Z,40.21
2022-09-02T10:36:55.972Z,40.36
2022-09-02T10:39:34.852Z,40.12
2022-09-02T10:42:14.612Z,39.99
2022-09-02T10:44:58.952Z,39.96
2022-09-02T10:47:39.435Z,39.72
2022-09-02T10:50:22.712Z,39.13
2022-09-02T10:53:09.426Z,39.41
2022-09-02T10:55:51.699Z,39.38
2022-09-02T10:58:31.612Z,38.85
2022-09-02T11:01:00.138Z,38.55
2022-09-02T11:03:35.068Z,38.91
2022-09-02T11:06:11.305Z,38.30
2022-09-02T11:08:44.086Z,37.95
2022-09-02T11:11:21.642Z,37.89
2022-09-02T11:14:05.643Z,37.74
2022-09-02T11:16:40.603Z,37.92
2022-09-02T11:19:16.556Z,37.22
2022-09-02T11:21:54.216Z,36.51
2022-09-02T11:24:28.219Z,36.48
2022-09-02T11:27:03.240Z,36.24
2022-09-02T11:29:48.528Z,36.52
2022-09-02T11:32:21.661Z,36.55
2022-09-02T11:34:56.049Z,36.77
2022-09-02T11:37:34.432Z,36.35
2022-09-02T11:40:33.168Z,36.63
2022-09-02T11:43:24.643Z,36.15
2022-09-02T11:46:26.144Z,35.89
2022-09-02T11:49:44.987Z,36.13
2022-09-02T11:52:27.375Z,36.17
2022-09-02T11:55:07.966Z,36.04
2022-09-02T11:57:38.462Z,35.87
2022-09-02T12:00:27.739Z,35.95
2022-09-02T12:03:28.374Z,36.04
2022-09-02T12:06:23.355Z,36.02
2022-09-02T12:09:37.611Z,35.52
2022-09-02T12:12:07.337Z,35.79
2022-09-02T12:15:07.710Z,35.55
2022-09-02T12:18:28.869Z,35.37
2022-09-02T12:21:15.857Z,35.13
2022-09-02T12:24:20.754Z,35.28
2022-09-02T12:27:13.173Z,35.11
2022-09-02T12:29:42.699Z,34.11
2022-09-02T12:32:13.680Z,33.09
2022-09-02T12:34:56.312Z,32.30
2022-09-02T12:37:57.377Z,32.04
2022-09-02T12:40:42.333Z,32.19
2022-09-02T12:43:26.429Z,32.25
2022-09-02T12:46:00.339Z,32.10
2022-09-02T12:48:45.817Z,32.06
2022-09-02T12:51:53.493Z,32.70
2022-09-02T12:54:30.564Z,32.32
2022-09-02T12:57:01.019Z,32.29
2022-09-02T12:59:32.485Z,32.29
2022-09-02T13:02:35.746Z,32.14
2022-09-02T13:05:16.285Z,31.98
2022-09-02T13:08:21.720Z,32.08
2022-09-02T13:11:46.902Z,32.01
2022-09-02T13:14:44.775Z,31.87
2022-09-02T13:17:36.014Z,31.33
2022-09-02T13:20:43.376Z,30.79
2022-09-02T13:23:50.183Z,30.60
2022-09-02T13:26:48.927Z,30.65
2022-09-02T13:29:46.295Z,31.14
2022-09-02T13:32:17.601Z,32.05
2022-09-02T13:34:50.215Z,31.59
2022-09-02T13:37:33.819Z,31.44
2022-09-02T13:40:07.867Z,30.70
2022-09-02T13:42:37.326Z,29.04
2022-09-02T13:45:13.863Z,28.43
2022-09-02T13:47:46.226Z,28.67
2022-09-02T13:50:19.335Z,28.95
2022-09-02T13:53:45.030Z,29.11
2022-09-02T13:55:48.222Z,28.95
2022-09-02T13:58:24.114Z,29.26
2022-09-02T14:00:52.454Z,29.21
2022-09-02T14:03:22.434Z,29.27
2022-09-02T14:05:56.642Z,29.68
2022-09-02T14:08:28.958Z,29.70
2022-09-02T14:10:58.789Z,30.31
2022-09-02T14:13:30.502Z,30.37
2022-09-02T14:16:26.424Z,30.05
2022-09-02T14:19:11.601Z,30.34
2022-09-02T14:21:52.918Z,30.90
2022-09-02T14:24:23.965Z,30.72
2022-09-02T14:26:54.850Z,30.64
2022-09-02T14:29:25.057Z,30.80
2022-09-02T14:32:14.750Z,30.62
2022-09-02T14:34:44.681Z,30.40
2022-09-02T14:37:26.190Z,30.66
2022-09-02T14:40:04.728Z,30.55
2022-09-02T14:42:34.698Z,30.97
2022-09-02T14:45:05.700Z,30.98
2022-09-02T14:47:38.616Z,30.95
2022-09-02T14:50:15.615Z,30.84
2022-09-02T14:52:51.447Z,31.29
2022-09-02T14:55:44.151Z,31.63
2022-09-02T14:58:12.878Z,31.71
2022-09-02T15:00:44.658Z,31.68
2022-09-02T15:03:16.723Z,32.19
2022-09-02T15:05:46.117Z,32.27
2022-09-02T15:08:17.114Z,32.33
2022-09-02T15:10:50.050Z,32.65
2022-09-02T15:13:32.669Z,32.73
2022-09-02T15:16:06.640Z,32.88
2022-09-02T15:18:48.697Z,32.88
2022-09-02T15:21:22.041Z,33.40
2022-09-02T15:23:51.752Z,33.52
2022-09-02T15:26:20.092Z,34.63
2022-09-02T15:28:49.222Z,35.38
2022-09-02T15:31:20.774Z,36.18
2022-09-02T15:33:51.864Z,36.71
2022-09-02T15:36:21.465Z,37.24
2022-09-02T15:38:49.657Z,37.35
2022-09-02T15:41:22.740Z,38.72
2022-09-02T15:44:03.294Z,40.06
2022-09-02T15:46:34.747Z,41.05
2022-09-02T15:49:05.383Z,41.91
2022-09-02T15:51:39.198Z,43.00
2022-09-02T15:54:11.558Z,44.11
2022-09-02T15:56:48.210Z,44.99
2022-09-02T15:59:18.226Z,46.50
2022-09-02T16:01:49.282Z,47.93
2022-09-02T16:04:17.964Z,50.09
2022-09-02T16:06:49.184Z,52.23
2022-09-02T16:09:19.117Z,53.95
2022-09-02T16:11:50.702Z,54.66
2022-09-02T16:14:20.753Z,55.65
2022-09-02T16:16:50.830Z,56.10
2022-09-02T16:19:21.574Z,55.98
2022-09-02T16:21:49.874Z,56.08
2022-09-02T16:24:21.439Z,56.10
2022-09-02T16:26:54.089Z,56.25
2022-09-02T16:29:28.077Z,55.93
2022-09-02T16:32:14.476Z,56.43
2022-09-02T16:34:45.518Z,56.42
2022-09-02T16:37:14.618Z,56.35
2022-09-02T16:39:43.217Z,56.30
2022-09-02T16:42:12.849Z,56.33
2022-09-02T16:44:41.921Z,56.58
2022-09-02T16:47:13.752Z,56.63
2022-09-02T16:49:42.357Z,56.56
2022-09-02T16:52:10.702Z,56.58
2022-09-02T16:54:41.173Z,56.41
2022-09-02T16:57:09.733Z,56.32
2022-09-02T16:59:42.597Z,56.11
2022-09-02T17:02:10.842Z,56.22
2022-09-02T17:04:38.998Z,56.20
2022-09-02T17:07:08.142Z,56.26
2022-09-02T17:09:39.003Z,56.30
2022-09-02T17:12:07.715Z,56.29
2022-09-02T17:14:36.259Z,56.92
2022-09-02T17:17:06.005Z,57.19
2022-09-02T17:19:34.259Z,58.54
2022-09-02T17:22:02.654Z,56.93
2022-09-02T17:24:32.282Z,56.42
2022-09-02T17:27:03.614Z,55.79
2022-09-02T17:29:49.844Z,55.68
2022-09-02T17:32:20.661Z,55.53
2022-09-02T17:35:17.917Z,55.42
2022-09-02T17:37:46.032Z,55.44
2022-09-02T17:40:34.485Z,55.44
2022-09-02T17:43:03.579Z,55.24
2022-09-02T17:45:32.202Z,55.27
2022-09-02T17:48:19.232Z,55.54
2022-09-02T17:50:50.481Z,55.44
2022-09-02T17:53:19.443Z,54.95
2022-09-02T17:55:49.746Z,55.42
2022-09-02T17:58:21.819Z,55.63
2022-09-02T18:00:54.100Z,55.41
2022-09-02T18:03:41.929Z,55.47
2022-09-02T18:06:18.998Z,55.62
2022-09-02T18:08:53.674Z,55.76
2022-09-02T18:11:24.897Z,55.85
2022-09-02T18:14:08.222Z,56.04
2022-09-02T18:16:51.527Z,56.00
2022-09-02T18:19:46.663Z,56.20
2022-09-02T18:22:44.520Z,56.12
2022-09-02T18:25:34.329Z,56.41
2022-09-02T18:28:14.507Z,56.43
2022-09-02T18:30:49.164Z,56.45
2022-09-02T18:33:30.933Z,56.36
2022-09-02T18:36:12.352Z,56.54
2022-09-02T18:38:47.869Z,56.67
2022-09-02T18:41:35.770Z,56.73
2022-09-02T18:44:24.199Z,57.19
2022-09-02T18:46:58.225Z,56.65
2022-09-02T18:49:30.296Z,56.93
2022-09-02T18:52:02.059Z,57.28
2022-09-02T18:54:35.716Z,57.19
2022-09-02T18:57:10.041Z,56.88
2022-09-02T18:59:44.601Z,57.16
2022-09-02T19:02:22.062Z,56.88
2022-09-02T19:04:50.958Z,57.20
2022-09-02T19:07:39.305Z,57.38
2022-09-02T19:10:09.218Z,57.20
2022-09-02T19:12:38.169Z,57.20
2022-09-02T19:15:09.344Z,57.14
2022-09-02T19:17:38.159Z,57.34
2022-09-02T19:20:07.820Z,57.31
2022-09-02T19:22:40.759Z,57.24
2022-09-02T19:25:14.506Z,57.22
2022-09-02T19:27:45.040Z,57.33
2022-09-02T19:30:16.007Z,57.35
2022-09-02T19:32:49.336Z,57.30
2022-09-02T19:35:20.550Z,57.30
2022-09-02T19:37:53.022Z,57.54
2022-09-02T19:40:23.206Z,57.32
2022-09-02T19:42:52.840Z,57.58
2022-09-02T19:45:22.007Z,57.70
2022-09-02T19:48:07.418Z,57.75
2022-09-02T19:50:43.378Z,57.53
2022-09-02T19:53:19.446Z,57.93
2022-09-02T19:55:48.068Z,57.56
2022-09-02T19:58:16.341Z,57.36
2022-09-02T20:00:45.000Z,57.90
2022-09-02T20:03:13.289Z,57.44
2022-09-02T20:05:42.793Z,57.59
2022-09-02T20:08:12.558Z,57.59
2022-09-02T20:10:41.534Z,57.81
2022-09-02T20:13:13.855Z,57.68
2022-09-02T20:15:41.999Z,57.94
2022-09-02T20:18:12.362Z,57.68
2022-09-02T20:20:44.528Z,57.76
2022-09-02T20:23:17.254Z,57.85
2022-09-02T20:26:08.232Z,57.92
2022-09-02T20:28:51.911Z,58.19
2022-09-02T20:31:43.568Z,58.11
2022-09-02T20:34:38.218Z,57.93
2022-09-02T20:37:16.480Z,58.11
2022-09-02T20:40:11.578Z,58.04
2022-09-02T20:43:03.315Z,57.96
2022-09-02T20:45:39.067Z,57.83
2022-09-02T20:48:25.366Z,58.34
2022-09-02T20:51:03.840Z,58.15
2022-09-02T20:53:48.460Z,58.12
2022-09-02T20:56:28.093Z,57.82
2022-09-02T20:59:02.967Z,57.69
2022-09-02T21:01:36.024Z,57.87
2022-09-02T21:04:13.494Z,57.65
2022-09-02T21:06:45.401Z,57.82
2022-09-02T21:09:20.641Z,57.64
2022-09-02T21:11:56.574Z,57.76
2022-09-02T21:14:33.493Z,57.98
2022-09-02T21:17:06.782Z,57.76
2022-09-02T21:19:43.239Z,57.68
2022-09-02T21:22:21.342Z,57.59
2022-09-02T21:24:57.815Z,57.92
2022-09-02T21:27:33.665Z,57.56
2022-09-02T21:30:07.273Z,57.74
2022-09-02T21:32:41.691Z,57.42
2022-09-02T21:35:14.672Z,57.62
2022-09-02T21:37:46.126Z,57.42
2022-09-02T21:40:17.843Z,57.54
2022-09-02T21:43:14.730Z,57.35
2022-09-02T21:45:53.048Z,57.50
2022-09-02T21:48:33.931Z,57.64
2022-09-02T21:51:06.367Z,57.59
2022-09-02T21:53:47.571Z,57.48
2022-09-02T21:56:32.737Z,57.42
2022-09-02T21:59:21.617Z,57.42
2022-09-02T22:01:56.464Z,57.64
2022-09-02T22:04:42.113Z,57.42
2022-09-02T22:07:19.447Z,57.48
2022-09-02T22:09:51.574Z,57.65
2022-09-02T22:12:20.148Z,57.53
2022-09-02T22:14:59.023Z,57.49
2022-09-02T22:17:36.572Z,57.37
2022-09-02T22:20:09.323Z,57.33
2022-09-02T22:22:41.692Z,57.35
2022-09-02T22:25:16.062Z,57.22
2022-09-02T22:27:51.183Z,57.06
2022-09-02T22:30:24.954Z,57.31
2022-09-02T22:33:07.366Z,57.24
2022-09-02T22:35:41.825Z,56.99
2022-09-02T22:38:18.663Z,57.16
2022-09-02T22:40:51.138Z,57.03
2022-09-02T22:43:25.308Z,57.21
2022-09-02T22:46:32.571Z,57.21
2022-09-02T22:49:23.698Z,57.29
2022-09-02T22:52:21.553Z,57.14
2022-09-02T22:54:52.512Z,57.17
2022-09-02T22:57:34.228Z,57.24
2022-09-02T23:00:10.213Z,57.03
2022-09-02T23:02:48.955Z,57.05
2022-09-02T23:05:43.319Z,57.01
2022-09-02T23:08:13.263Z,57.30
2022-09-02T23:10:47.551Z,57.08
2022-09-02T23:13:23.830Z,57.19
2022-09-02T23:16:04.884Z,57.12
2022-09-02T23:18:43.417Z,56.88
2022-09-02T23:21:26.872Z,57.20
2022-09-02T23:24:09.487Z,57.01
2022-09-02T23:26:46.267Z,57.09
2022-09-02T23:29:19.101Z,57.24
2022-09-02T23:32:20.904Z,57.50
2022-09-02T23:35:11.471Z,57.33
2022-09-02T23:37:54.711Z,57.27
2022-09-02T23:40:30.813Z,57.37
2022-09-02T23:42:59.561Z,57.16
2022-09-02T23:45:30.577Z,57.16
2022-09-02T23:48:17.638Z,57.29
2022-09-02T23:51:01.553Z,57.27
2022-09-02T23:53:35.955Z,56.97
2022-09-02T23:56:16.762Z,57.08
2022-09-02T23:59:02.426Z,57.08
